createdAt,value
2023-07-30T00:00:47.106Z,70.77
2023-07-30T00:03:53.506Z,70.88
2023-07-30T00:07:00.762Z,71.05
2023-07-30T00:10:06.484Z,71.10
2023-07-30T00:13:12.045Z,71.19
2023-07-30T00:16:19.300Z,71.32
2023-07-30T00:19:25.375Z,71.36
2023-07-30T00:22:34.515Z,71.41
2023-07-30T00:25:39.552Z,71.52
2023-07-30T00:28:44.910Z,71.60
2023-07-30T00:31:50.864Z,71.70
2023-07-30T00:34:55.800Z,71.84
2023-07-30T00:38:01.636Z,71.88
2023-07-30T00:41:07.976Z,72.06
2023-07-30T00:44:13.412Z,72.19
2023-07-30T00:47:19.421Z,72.33
2023-07-30T00:50:26.509Z,72.45
2023-07-30T00:53:33.391Z,72.59
2023-07-30T00:56:40.885Z,72.69
2023-07-30T00:59:47.760Z,72.77
2023-07-30T01:02:54.965Z,72.74
2023-07-30T01:06:01.696Z,72.80
2023-07-30T01:09:07.801Z,72.83
2023-07-30T01:12:13.541Z,72.89
2023-07-30T01:15:19.398Z,72.96
2023-07-30T01:18:25.386Z,73.07
2023-07-30T01:21:30.702Z,73.11
2023-07-30T01:24:37.228Z,73.15
2023-07-30T01:27:45.079Z,73.20
2023-07-30T01:30:57.746Z,73.16
2023-07-30T01:34:04.564Z,73.20
2023-07-30T01:37:09.920Z,73.30
2023-07-30T01:40:16.301Z,73.35
2023-07-30T01:43:23.183Z,73.42
2023-07-30T01:46:31.198Z,73.58
2023-07-30T01:49:37.253Z,73.62
2023-07-30T01:52:44.218Z,73.76
2023-07-30T01:55:54.593Z,74.00
2023-07-30T01:59:02.178Z,74.19
2023-07-30T02:02:08.376Z,74.37
2023-07-30T02:05:14.627Z,74.49
2023-07-30T02:08:24.252Z,74.61
2023-07-30T02:11:30.820Z,74.65
2023-07-30T02:14:36.380Z,74.66
2023-07-30T02:17:41.838Z,74.58
2023-07-30T02:20:48.110Z,74.56
2023-07-30T02:23:53.445Z,74.52
2023-07-30T02:26:59.102Z,74.50
2023-07-30T02:30:05.276Z,74.47
2023-07-30T02:33:11.021Z,74.59
2023-07-30T02:36:17.278Z,74.77
2023-07-30T02:39:23.639Z,74.98
2023-07-30T02:42:29.804Z,75.11
2023-07-30T02:45:37.586Z,75.25
2023-07-30T02:48:43.566Z,75.34
2023-07-30T02:51:49.320Z,75.36
2023-07-30T02:54:55.878Z,75.44
2023-07-30T02:58:00.830Z,75.51
2023-07-30T03:01:07.007Z,75.52
2023-07-30T03:04:14.430Z,75.48
2023-07-30T03:07:20.757Z,75.53
2023-07-30T03:10:25.689Z,75.54
2023-07-30T03:13:32.965Z,75.61
2023-07-30T03:16:38.988Z,75.68
2023-07-30T03:19:45.935Z,75.72
2023-07-30T03:22:52.385Z,75.83
2023-07-30T03:25:59.261Z,75.88
2023-07-30T03:29:05.846Z,75.97
2023-07-30T03:32:12.840Z,76.10
2023-07-30T03:35:20.509Z,76.25
2023-07-30T03:38:25.165Z,76.33
2023-07-30T03:41:33.248Z,76.43
2023-07-30T03:44:39.556Z,76.50
2023-07-30T03:47:45.654Z,76.58
2023-07-30T03:50:54.925Z,76.67
2023-07-30T03:54:01.727Z,76.72
2023-07-30T03:57:07.659Z,76.81
2023-07-30T04:00:13.208Z,76.86
2023-07-30T04:03:19.948Z,76.95
2023-07-30T04:06:24.924Z,77.01
2023-07-30T04:09:31.205Z,77.04
2023-07-30T04:12:38.258Z,77.08
2023-07-30T04:15:45.066Z,77.08
2023-07-30T04:18:51.433Z,77.09
2023-07-30T04:21:51.105Z,77.07
2023-07-30T04:24:58.118Z,77.15
2023-07-30T04:28:04.752Z,77.25
2023-07-30T04:31:05.013Z,77.29
2023-07-30T04:34:10.350Z,77.37
2023-07-30T04:37:15.726Z,77.42
2023-07-30T04:40:25.549Z,77.46
2023-07-30T04:43:31.631Z,77.50
2023-07-30T04:46:38.123Z,77.57
2023-07-30T04:49:47.635Z,77.63
2023-07-30T04:52:54.102Z,77.72
2023-07-30T04:56:00.595Z,77.79
2023-07-30T04:59:08.077Z,77.82
2023-07-30T05:02:14.426Z,77.89
2023-07-30T05:05:21.230Z,77.85
2023-07-30T05:08:27.088Z,77.85
2023-07-30T05:11:35.695Z,77.83
2023-07-30T05:14:41.821Z,77.80
2023-07-30T05:17:49.882Z,77.81
2023-07-30T05:20:55.272Z,77.86
2023-07-30T05:24:01.159Z,77.84
2023-07-30T05:27:07.783Z,77.82
2023-07-30T05:30:25.512Z,77.79
2023-07-30T05:33:31.332Z,77.83
2023-07-30T05:36:36.866Z,77.75
2023-07-30T05:39:42.756Z,77.67
2023-07-30T05:42:48.497Z,77.62
2023-07-30T05:45:54.032Z,77.64
2023-07-30T05:49:03.021Z,77.63
2023-07-30T05:52:08.436Z,77.50
2023-07-30T05:55:08.440Z,77.45
2023-07-30T05:58:14.601Z,77.37
2023-07-30T06:01:21.459Z,77.30
2023-07-30T06:04:28.311Z,77.29
2023-07-30T06:07:34.605Z,77.23
2023-07-30T06:10:41.460Z,77.12
2023-07-30T06:13:47.123Z,77.03
2023-07-30T06:16:52.580Z,76.93
2023-07-30T06:19:58.482Z,76.78
2023-07-30T06:23:03.603Z,76.63
2023-07-30T06:26:08.961Z,76.56
2023-07-30T06:29:16.048Z,76.51
2023-07-30T06:32:23.813Z,76.44
2023-07-30T06:35:30.600Z,76.34
2023-07-30T06:38:38.577Z,76.25
2023-07-30T06:41:44.626Z,76.08
2023-07-30T06:44:51.088Z,75.94
2023-07-30T06:47:56.991Z,75.88
2023-07-30T06:51:02.873Z,75.77
2023-07-30T06:54:08.203Z,75.63
2023-07-30T06:57:13.872Z,75.49
2023-07-30T07:00:20.430Z,75.27
2023-07-30T07:03:26.731Z,75.17
2023-07-30T07:06:32.972Z,75.01
2023-07-30T07:09:38.427Z,74.85
2023-07-30T07:12:46.023Z,74.75
2023-07-30T07:15:54.018Z,74.58
2023-07-30T07:19:00.706Z,74.33
2023-07-30T07:22:09.242Z,74.15
2023-07-30T07:25:15.376Z,73.98
2023-07-30T07:28:22.611Z,73.67
2023-07-30T07:31:29.071Z,73.42
2023-07-30T07:34:34.105Z,73.12
2023-07-30T07:37:41.360Z,72.83
2023-07-30T07:43:55.554Z,72.41
2023-07-30T07:47:01.296Z,72.03
2023-07-30T07:50:07.248Z,71.77
2023-07-30T07:53:14.642Z,71.51
2023-07-30T07:56:20.292Z,71.30
2023-07-30T07:59:25.533Z,71.15
2023-07-30T08:02:32.657Z,70.88
2023-07-30T08:05:39.377Z,70.37
2023-07-30T08:08:47.345Z,69.87
2023-07-30T08:11:54.697Z,69.74
2023-07-30T08:15:04.117Z,69.65
2023-07-30T08:18:09.114Z,69.44
2023-07-30T08:21:16.170Z,69.10
2023-07-30T08:24:22.330Z,68.68
2023-07-30T08:27:29.511Z,68.34
2023-07-30T08:30:36.765Z,68.09
2023-07-30T08:33:44.707Z,67.83
2023-07-30T08:36:45.971Z,67.50
2023-07-30T08:39:49.844Z,67.27
2023-07-30T08:42:55.040Z,67.01
2023-07-30T08:46:01.564Z,67.03
2023-07-30T08:49:08.456Z,66.85
2023-07-30T08:52:14.323Z,66.46
2023-07-30T08:55:20.967Z,66.17
2023-07-30T08:58:26.713Z,65.86
2023-07-30T09:01:33.189Z,65.58
2023-07-30T09:04:40.307Z,65.23
2023-07-30T09:07:48.106Z,64.91
2023-07-30T09:10:54.157Z,64.73
2023-07-30T09:14:01.252Z,64.60
2023-07-30T09:17:12.816Z,64.26
2023-07-30T09:20:29.903Z,63.95
2023-07-30T09:23:36.176Z,63.53
2023-07-30T09:26:43.036Z,63.17
2023-07-30T09:29:48.403Z,62.84
2023-07-30T09:32:54.538Z,62.50
2023-07-30T09:36:01.714Z,62.17
2023-07-30T09:39:08.233Z,61.85
2023-07-30T09:42:19.486Z,61.67
2023-07-30T09:45:40.098Z,61.39
2023-07-30T09:48:48.106Z,60.89
2023-07-30T09:51:53.696Z,60.46
2023-07-30T09:55:00.320Z,60.07
2023-07-30T09:58:10.665Z,59.85
2023-07-30T10:01:16.744Z,59.71
2023-07-30T10:04:24.732Z,59.40
2023-07-30T10:07:33.923Z,59.32
2023-07-30T10:10:39.966Z,59.24
2023-07-30T10:13:46.617Z,58.99
2023-07-30T10:16:52.265Z,58.68
2023-07-30T10:19:58.809Z,58.29
2023-07-30T10:23:09.202Z,58.11
2023-07-30T10:26:17.927Z,57.92
2023-07-30T10:29:37.377Z,57.74
2023-07-30T10:32:47.365Z,57.52
2023-07-30T10:36:03.721Z,57.05
2023-07-30T10:39:13.216Z,56.61
2023-07-30T10:42:23.334Z,56.24
2023-07-30T10:45:29.918Z,55.87
2023-07-30T10:48:52.145Z,55.55
2023-07-30T10:51:58.401Z,55.22
2023-07-30T10:55:05.097Z,54.90
2023-07-30T10:58:10.648Z,54.73
2023-07-30T11:01:20.836Z,54.49
2023-07-30T11:04:29.021Z,54.25
2023-07-30T11:07:37.655Z,54.07
2023-07-30T11:10:43.095Z,53.96
2023-07-30T11:13:56.522Z,53.77
2023-07-30T11:17:07.705Z,53.78
2023-07-30T11:20:14.488Z,53.70
2023-07-30T11:23:38.461Z,53.53
2023-07-30T11:26:45.554Z,53.29
2023-07-30T11:29:52.955Z,52.91
2023-07-30T11:33:00.048Z,52.65
2023-07-30T11:36:06.485Z,52.49
2023-07-30T11:39:12.254Z,52.38
2023-07-30T11:42:18.062Z,52.17
2023-07-30T11:45:36.933Z,52.05
2023-07-30T11:48:47.056Z,51.90
2023-07-30T11:52:01.387Z,52.03
2023-07-30T11:55:20.751Z,51.86
2023-07-30T11:58:30.808Z,51.79
2023-07-30T12:01:37.246Z,51.66
2023-07-30T12:05:11.277Z,51.52
2023-07-30T12:08:10.300Z,51.32
2023-07-30T12:11:23.222Z,51.16
2023-07-30T12:14:27.812Z,50.88
2023-07-30T12:17:34.868Z,50.49
2023-07-30T12:20:43.456Z,50.15
2023-07-30T12:23:51.460Z,49.85
2023-07-30T12:26:56.785Z,49.65
2023-07-30T12:30:03.763Z,49.45
2023-07-30T12:33:09.858Z,49.35
2023-07-30T12:36:15.271Z,49.27
2023-07-30T12:39:20.106Z,49.09
2023-07-30T12:42:28.040Z,48.87
2023-07-30T12:45:35.435Z,48.74
2023-07-30T12:48:42.212Z,48.56
2023-07-30T12:51:48.987Z,48.46
2023-07-30T12:54:54.959Z,48.47
2023-07-30T12:57:59.458Z,48.44
2023-07-30T13:01:05.103Z,48.41
2023-07-30T13:04:10.180Z,48.38
2023-07-30T13:07:15.898Z,48.24
2023-07-30T13:10:23.409Z,48.13
2023-07-30T13:13:32.071Z,48.02
2023-07-30T13:16:32.368Z,47.71
2023-07-30T13:19:18.573Z,47.71
2023-07-30T13:22:13.333Z,47.66
2023-07-30T13:25:20.994Z,47.54
2023-07-30T13:28:27.276Z,47.33
2023-07-30T13:31:34.598Z,47.33
2023-07-30T13:34:41.906Z,47.07
2023-07-30T13:37:48.265Z,46.99
2023-07-30T13:40:55.498Z,46.90
2023-07-30T13:43:54.961Z,46.82
2023-07-30T13:47:02.354Z,46.64
2023-07-30T13:50:10.455Z,46.64
2023-07-30T13:53:16.106Z,46.53
2023-07-30T13:56:22.700Z,46.49
2023-07-30T13:59:29.143Z,46.10
2023-07-30T14:02:36.881Z,46.10
2023-07-30T14:05:44.337Z,46.34
2023-07-30T14:08:51.228Z,46.28
2023-07-30T14:11:58.001Z,46.20
2023-07-30T14:15:04.520Z,46.39
2023-07-30T14:18:09.650Z,46.39
2023-07-30T14:21:16.788Z,46.30
2023-07-30T14:24:23.362Z,46.54
2023-07-30T14:27:29.938Z,46.32
2023-07-30T14:30:36.412Z,46.32
2023-07-30T14:33:45.361Z,46.15
2023-07-30T14:36:51.416Z,46.13
2023-07-30T14:39:58.643Z,46.19
2023-07-30T14:43:04.230Z,46.19
2023-07-30T14:46:09.621Z,46.19
2023-07-30T14:49:18.111Z,46.16
2023-07-30T14:52:24.485Z,46.17
2023-07-30T14:55:30.302Z,46.17
2023-07-30T14:58:35.507Z,46.20
2023-07-30T15:01:45.526Z,46.09
2023-07-30T15:04:52.221Z,46.07
2023-07-30T15:07:59.491Z,46.09
2023-07-30T15:11:06.060Z,46.16
2023-07-30T15:14:11.248Z,46.22
2023-07-30T15:17:17.610Z,46.20
2023-07-30T15:20:23.475Z,46.20
2023-07-30T15:23:28.678Z,46.13
2023-07-30T15:26:36.388Z,46.12
2023-07-30T15:29:41.916Z,46.15
2023-07-30T15:32:47.907Z,46.16
2023-07-30T15:35:53.472Z,46.17
2023-07-30T15:39:01.735Z,46.14
2023-07-30T15:42:12.522Z,46.09
2023-07-30T15:45:19.155Z,46.11
2023-07-30T15:48:25.856Z,46.13
2023-07-30T15:51:34.459Z,46.20
2023-07-30T15:54:50.999Z,46.26
2023-07-30T15:57:56.568Z,46.32
2023-07-30T16:01:01.978Z,46.44
2023-07-30T16:04:14.275Z,46.52
2023-07-30T16:07:21.519Z,46.65
2023-07-30T16:10:28.030Z,46.78
2023-07-30T16:13:37.904Z,46.89
2023-07-30T16:16:47.170Z,47.03
2023-07-30T16:19:54.571Z,47.17
2023-07-30T16:23:00.281Z,47.34
2023-07-30T16:26:05.336Z,47.51
2023-07-30T16:29:14.093Z,47.76
2023-07-30T16:32:19.898Z,48.02
2023-07-30T16:35:25.983Z,48.29
2023-07-30T16:38:34.803Z,48.51
2023-07-30T16:41:41.148Z,48.74
2023-07-30T16:44:47.840Z,49.09
2023-07-30T16:48:00.944Z,49.39
2023-07-30T16:51:06.853Z,49.67
2023-07-30T16:54:18.646Z,49.91
2023-07-30T16:57:28.720Z,50.18
2023-07-30T17:00:35.105Z,50.49
2023-07-30T17:03:40.347Z,50.75
2023-07-30T17:06:46.669Z,51.07
2023-07-30T17:09:53.088Z,51.40
2023-07-30T17:13:00.830Z,51.63
2023-07-30T17:16:08.110Z,51.80
2023-07-30T17:19:14.327Z,52.10
2023-07-30T17:22:21.790Z,52.40
2023-07-30T17:25:27.467Z,52.68
2023-07-30T17:28:32.478Z,52.93
2023-07-30T17:35:05.532Z,53.38
2023-07-30T17:38:12.418Z,53.67
2023-07-30T17:41:17.303Z,53.97
2023-07-30T17:44:22.785Z,54.19
2023-07-30T17:47:29.329Z,54.47
2023-07-30T17:50:35.869Z,54.74
2023-07-30T17:53:42.790Z,55.04
2023-07-30T17:56:49.149Z,55.27
2023-07-30T17:59:57.045Z,55.48
2023-07-30T18:03:06.526Z,55.70
2023-07-30T18:06:13.126Z,55.91
2023-07-30T18:09:21.158Z,56.14
2023-07-30T18:12:27.137Z,56.40
2023-07-30T18:15:32.900Z,56.66
2023-07-30T18:18:39.528Z,56.87
2023-07-30T18:21:45.613Z,57.08
2023-07-30T18:24:54.767Z,57.29
2023-07-30T18:28:01.412Z,57.46
2023-07-30T18:31:07.288Z,57.71
2023-07-30T18:34:14.174Z,57.97
2023-07-30T18:37:21.096Z,58.21
2023-07-30T18:40:28.353Z,58.43
2023-07-30T18:43:36.162Z,58.64
2023-07-30T18:46:43.549Z,58.88
2023-07-30T18:49:48.883Z,59.13
2023-07-30T18:52:55.258Z,59.34
2023-07-30T18:56:02.917Z,59.56
2023-07-30T18:59:12.193Z,59.77
2023-07-30T19:02:19.384Z,59.97
2023-07-30T19:05:25.351Z,60.13
2023-07-30T19:08:35.183Z,60.29
2023-07-30T19:11:41.459Z,60.50
2023-07-30T19:14:48.955Z,60.73
2023-07-30T19:17:55.351Z,60.92
2023-07-30T19:21:03.052Z,61.08
2023-07-30T19:24:08.632Z,61.28
2023-07-30T19:27:14.338Z,61.48
2023-07-30T19:30:22.489Z,61.65
2023-07-30T19:33:28.580Z,61.83
2023-07-30T19:36:35.579Z,61.98
2023-07-30T19:39:41.853Z,62.11
2023-07-30T19:42:48.528Z,62.22
2023-07-30T19:45:55.786Z,62.38
2023-07-30T19:49:01.672Z,62.50
2023-07-30T19:52:08.953Z,62.66
2023-07-30T19:55:15.532Z,62.78
2023-07-30T19:58:23.940Z,62.92
2023-07-30T20:01:30.843Z,63.14
2023-07-30T20:04:37.307Z,63.29
2023-07-30T20:07:44.701Z,63.44
2023-07-30T20:10:51.588Z,63.51
2023-07-30T20:14:17.759Z,63.62
2023-07-30T20:17:24.847Z,63.79
2023-07-30T20:20:31.183Z,63.99
2023-07-30T20:23:38.544Z,64.09
2023-07-30T20:26:45.724Z,64.22
2023-07-30T20:29:51.693Z,64.38
2023-07-30T20:32:58.941Z,64.54
2023-07-30T20:36:05.649Z,64.68
2023-07-30T20:39:11.048Z,64.75
2023-07-30T20:42:15.949Z,64.93
2023-07-30T20:45:21.791Z,64.98
2023-07-30T20:48:26.791Z,65.11
2023-07-30T20:51:32.384Z,65.27
2023-07-30T20:54:38.638Z,65.41
2023-07-30T20:57:45.314Z,65.54
2023-07-30T21:00:51.500Z,65.67
2023-07-30T21:03:57.555Z,65.81
2023-07-30T21:07:07.510Z,65.95
2023-07-30T21:10:13.164Z,66.11
2023-07-30T21:13:19.008Z,66.24
2023-07-30T21:16:25.494Z,66.35
2023-07-30T21:19:31.561Z,66.48
2023-07-30T21:22:36.733Z,66.65
2023-07-30T21:25:42.028Z,66.80
2023-07-30T21:28:47.678Z,66.92
2023-07-30T21:31:54.411Z,67.02
2023-07-30T21:35:01.553Z,67.13
2023-07-30T21:38:08.529Z,67.22
2023-07-30T21:41:13.674Z,67.34
2023-07-30T21:44:20.751Z,67.46
2023-07-30T21:47:26.332Z,67.62
2023-07-30T21:50:32.560Z,67.67
2023-07-30T21:53:37.713Z,67.76
2023-07-30T21:56:44.891Z,67.87
2023-07-30T21:59:50.542Z,67.88
2023-07-30T22:02:57.903Z,67.96
2023-07-30T22:06:02.891Z,68.01
2023-07-30T22:09:10.926Z,68.02
2023-07-30T22:12:17.340Z,68.08
2023-07-30T22:15:24.063Z,68.10
2023-07-30T22:18:30.723Z,68.13
2023-07-30T22:21:37.986Z,68.16
2023-07-30T22:24:43.863Z,68.18
2023-07-30T22:28:02.861Z,68.23
2023-07-30T22:30:58.989Z,68.23
2023-07-30T22:34:06.435Z,68.26
2023-07-30T22:37:12.502Z,68.27
2023-07-30T22:40:20.008Z,68.30
2023-07-30T22:43:25.119Z,68.34
2023-07-30T22:46:30.402Z,68.37
2023-07-30T22:49:36.943Z,68.41
2023-07-30T22:52:41.439Z,68.42
2023-07-30T22:55:46.614Z,68.36
2023-07-30T22:58:52.166Z,68.37
2023-07-30T23:01:57.915Z,68.36
2023-07-30T23:05:03.681Z,68.33
2023-07-30T23:08:08.507Z,68.32
2023-07-30T23:11:15.490Z,68.40
2023-07-30T23:14:24.003Z,68.45
2023-07-30T23:17:30.996Z,68.55
2023-07-30T23:20:40.233Z,68.67
2023-07-30T23:23:46.575Z,68.74
2023-07-30T23:26:53.066Z,68.83
2023-07-30T23:29:58.625Z,68.92
2023-07-30T23:33:04.408Z,68.96
2023-07-30T23:36:11.451Z,69.06
2023-07-30T23:39:17.319Z,69.09
2023-07-30T23:42:23.781Z,69.14
2023-07-30T23:45:29.331Z,69.22
2023-07-30T23:48:37.150Z,69.30
2023-07-30T23:51:43.704Z,69.42
2023-07-30T23:54:50.272Z,69.49
2023-07-30T23:57:56.747Z,69.60
